FHAW

Details ICAO FHAW
Name Ascension Wideawake Field
Region Saint Helena, Ascension and Tristan da Cunha
Timezone Atlantic/St_Helena (UTC+0.0)
Plans Departing 42
Arriving 66
Stats Elevation 278 ft / 85 m (AMSL)
Location -7.969590° -14.393699°
Runways 1
Magnetic Variation 15.394° W
Sunrise 2017-12-11 06:35:00 UTC / 2017-12-11 06:35:00 Local
Sunset 2017-12-11 19:09:36 UTC / 2017-12-11 19:09:36 Local
Advertisement - Login to hide

Runways

ID Width Length Bearing (true) Bearing (mag) Surface Threshold Offset Overrun Length
13 148 ft / 45 m 10,008 ft / 3,050 m 116.79° 132.18° Asphalt 0 ft / 0 m 262 ft / 80 m
31 148 ft / 45 m 10,008 ft / 3,050 m 296.79° 312.18° Asphalt 0 ft / 0 m 495 ft / 151 m

Map

Weather


0- 5 10 15 20 25 30 35+ Temperature / ° C

Clouds and Precipitation
Forecast for 2017-12-12 00:00 UTC. Updated 2 hours ago

Ground ~20,000 ft ~40,000 ft Winds

METAR

FHAW 112050Z 14013KT 9999 SCT020 BKN030 24/18 Q1014 WHT

TAF

Not found

Frequencies

Tower 126.20 MHz Wideawake Tower
Warning: Do not use this data for real-world aviation or navigation. No guarantee of current accuracy is given.